sensor_id;sensor_type;location;lat;lon;timestamp;noise_LAeq;noise_LA_min;noise_LA_max;noise_LA01;noise_LA95
66747;Laerm;53658;50.742;10.864;2023-11-21T00:01:22;36.69;29.92;52.57;;
66747;Laerm;53658;50.742;10.864;2023-11-21T00:03:48;36.80;30.89;51.59;;
66747;Laerm;53658;50.742;10.864;2023-11-21T00:06:14;36.70;26.91;52.42;;
66747;Laerm;53658;50.742;10.864;2023-11-21T00:08:40;36.86;29.92;52.62;;
66747;Laerm;53658;50.742;10.864;2023-11-21T00:11:06;36.72;23.90;50.93;;
66747;Laerm;53658;50.742;10.864;2023-11-21T00:13:32;36.76;29.92;52.39;;
66747;Laerm;53658;50.742;10.864;2023-11-21T00:15:58;40.21;26.91;68.93;;
66747;Laerm;53658;50.742;10.864;2023-11-21T00:18:24;36.65;28.67;50.21;;
66747;Laerm;53658;50.742;10.864;2023-11-21T00:20:50;36.65;29.92;51.62;;
66747;Laerm;53658;50.742;10.864;2023-11-21T00:23:15;36.73;28.67;52.63;;
66747;Laerm;53658;50.742;10.864;2023-11-21T00:25:42;36.59;29.92;51.75;;
66747;Laerm;53658;50.742;10.864;2023-11-21T00:28:10;36.65;28.67;50.24;;
66747;Laerm;53658;50.742;10.864;2023-11-21T00:30:36;36.64;29.92;51.24;;
66747;Laerm;53658;50.742;10.864;2023-11-21T00:33:02;36.67;26.91;51.87;;
66747;Laerm;53658;50.742;10.864;2023-11-21T00:35:28;36.55;28.67;40.03;;
66747;Laerm;53658;50.742;10.864;2023-11-21T00:37:54;36.58;28.67;48.13;;
66747;Laerm;53658;50.742;10.864;2023-11-21T00:40:20;36.57;28.67;48.96;;
66747;Laerm;53658;50.742;10.864;2023-11-21T00:42:47;36.65;28.67;49.69;;
66747;Laerm;53658;50.742;10.864;2023-11-21T00:45:13;36.57;29.92;49.27;;
66747;Laerm;53658;50.742;10.864;2023-11-21T00:47:39;36.53;28.67;49.89;;
66747;Laerm;53658;50.742;10.864;2023-11-21T00:50:05;36.53;28.67;50.53;;
66747;Laerm;53658;50.742;10.864;2023-11-21T00:52:35;36.49;26.91;49.91;;
66747;Laerm;53658;50.742;10.864;2023-11-21T00:55:02;36.46;28.67;49.60;;
66747;Laerm;53658;50.742;10.864;2023-11-21T00:57:29;36.54;26.91;41.61;;
66747;Laerm;53658;50.742;10.864;2023-11-21T00:59:55;36.76;26.91;57.07;;
66747;Laerm;53658;50.742;10.864;2023-11-21T01:02:20;36.55;28.67;42.76;;
66747;Laerm;53658;50.742;10.864;2023-11-21T01:04:47;36.55;29.92;41.75;;
66747;Laerm;53658;50.742;10.864;2023-11-21T01:07:14;36.53;26.91;41.96;;
66747;Laerm;53658;50.742;10.864;2023-11-21T01:09:39;36.60;26.91;41.82;;
66747;Laerm;53658;50.742;10.864;2023-11-21T01:12:06;36.59;29.92;41.14;;
66747;Laerm;53658;50.742;10.864;2023-11-21T01:14:33;36.56;29.92;41.68;;
66747;Laerm;53658;50.742;10.864;2023-11-21T01:16:59;36.58;30.89;41.61;;
66747;Laerm;53658;50.742;10.864;2023-11-21T01:19:25;36.58;28.32;42.09;;
66747;Laerm;53658;50.742;10.864;2023-11-21T01:21:50;36.68;29.92;41.38;;
66747;Laerm;53658;50.742;10.864;2023-11-21T01:24:17;36.81;30.89;40.89;;
66747;Laerm;53658;50.742;10.864;2023-11-21T01:26:43;36.89;30.89;41.75;;
66747;Laerm;53658;50.742;10.864;2023-11-21T01:29:11;36.59;29.92;41.82;;
66747;Laerm;53658;50.742;10.864;2023-11-21T01:31:36;36.46;29.92;41.75;;
66747;Laerm;53658;50.742;10.864;2023-11-21T01:34:02;36.48;29.92;40.80;;
66747;Laerm;53658;50.742;10.864;2023-11-21T01:36:32;36.41;28.67;41.11;;
66747;Laerm;53658;50.742;10.864;2023-11-21T01:38:59;36.39;29.92;41.30;;
66747;Laerm;53658;50.742;10.864;2023-11-21T01:41:26;36.42;26.91;39.58;;
66747;Laerm;53658;50.742;10.864;2023-11-21T01:43:52;36.34;29.92;39.81;;
66747;Laerm;53658;50.742;10.864;2023-11-21T01:46:20;36.38;28.32;39.58;;
66747;Laerm;53658;50.742;10.864;2023-11-21T01:48:48;36.36;29.92;39.46;;
66747;Laerm;53658;50.742;10.864;2023-11-21T01:51:16;36.52;28.67;41.38;;
66747;Laerm;53658;50.742;10.864;2023-11-21T01:53:42;36.54;23.90;41.46;;
66747;Laerm;53658;50.742;10.864;2023-11-21T01:56:09;36.49;28.67;41.30;;
66747;Laerm;53658;50.742;10.864;2023-11-21T01:58:36;36.43;29.92;41.38;;
66747;Laerm;53658;50.742;10.864;2023-11-21T02:01:02;36.66;29.92;41.96;;
66747;Laerm;53658;50.742;10.864;2023-11-21T02:03:28;36.54;28.67;48.12;;
66747;Laerm;53658;50.742;10.864;2023-11-21T02:05:54;47.20;28.67;82.98;;
66747;Laerm;53658;50.742;10.864;2023-11-21T02:08:20;36.55;28.67;41.68;;
66747;Laerm;53658;50.742;10.864;2023-11-21T02:10:46;36.48;28.67;44.62;;
66747;Laerm;53658;50.742;10.864;2023-11-21T02:13:13;36.54;28.67;42.22;;
66747;Laerm;53658;50.742;10.864;2023-11-21T02:15:39;36.51;28.67;42.22;;
66747;Laerm;53658;50.742;10.864;2023-11-21T02:18:05;36.51;26.91;41.38;;
66747;Laerm;53658;50.742;10.864;2023-11-21T02:20:32;36.39;26.91;40.80;;
66747;Laerm;53658;50.742;10.864;2023-11-21T02:23:00;36.43;28.67;41.46;;
66747;Laerm;53658;50.742;10.864;2023-11-21T02:25:29;36.45;28.67;40.71;;
66747;Laerm;53658;50.742;10.864;2023-11-21T02:27:57;36.46;29.92;41.61;;
66747;Laerm;53658;50.742;10.864;2023-11-21T02:30:24;36.47;28.67;41.82;;
66747;Laerm;53658;50.742;10.864;2023-11-21T02:33:00;36.45;26.91;41.22;;
66747;Laerm;53658;50.742;10.864;2023-11-21T02:35:26;36.35;28.67;39.70;;
66747;Laerm;53658;50.742;10.864;2023-11-21T02:37:53;36.35;28.67;41.75;;
66747;Laerm;53658;50.742;10.864;2023-11-21T02:40:19;36.34;26.91;39.58;;
66747;Laerm;53658;50.742;10.864;2023-11-21T02:42:50;36.30;28.67;39.46;;
66747;Laerm;53658;50.742;10.864;2023-11-21T02:45:18;36.29;28.67;39.92;;
66747;Laerm;53658;50.742;10.864;2023-11-21T02:47:46;36.29;26.91;39.81;;
66747;Laerm;53658;50.742;10.864;2023-11-21T02:50:13;36.30;29.57;41.30;;
66747;Laerm;53658;50.742;10.864;2023-11-21T02:52:39;36.32;26.91;42.53;;
66747;Laerm;53658;50.742;10.864;2023-11-21T02:55:08;36.29;28.67;39.34;;
66747;Laerm;53658;50.742;10.864;2023-11-21T02:57:34;36.29;29.92;40.33;;
66747;Laerm;53658;50.742;10.864;2023-11-21T03:00:00;36.27;28.67;40.43;;
66747;Laerm;53658;50.742;10.864;2023-11-21T03:02:26;36.26;28.67;39.70;;
66747;Laerm;53658;50.742;10.864;2023-11-21T03:04:52;36.34;29.92;54.36;;
66747;Laerm;53658;50.742;10.864;2023-11-21T03:07:18;36.27;29.92;39.81;;
66747;Laerm;53658;50.742;10.864;2023-11-21T03:09:45;36.32;26.91;39.70;;
66747;Laerm;53658;50.742;10.864;2023-11-21T03:12:11;36.27;28.67;40.03;;
66747;Laerm;53658;50.742;10.864;2023-11-21T03:14:39;36.25;28.67;39.81;;
66747;Laerm;53658;50.742;10.864;2023-11-21T03:17:04;36.27;28.67;41.22;;
66747;Laerm;53658;50.742;10.864;2023-11-21T03:19:31;36.29;28.67;39.46;;
66747;Laerm;53658;50.742;10.864;2023-11-21T03:21:56;37.01;26.91;64.49;;
66747;Laerm;53658;50.742;10.864;2023-11-21T03:24:23;36.33;28.67;40.13;;
66747;Laerm;53658;50.742;10.864;2023-11-21T03:26:49;36.30;29.92;39.68;;
66747;Laerm;53658;50.742;10.864;2023-11-21T03:29:17;36.30;28.67;39.58;;
66747;Laerm;53658;50.742;10.864;2023-11-21T03:31:43;36.27;26.91;40.79;;
66747;Laerm;53658;50.742;10.864;2023-11-21T03:34:25;36.33;28.67;39.21;;
66747;Laerm;53658;50.742;10.864;2023-11-21T03:36:54;36.25;26.91;39.70;;
66747;Laerm;53658;50.742;10.864;2023-11-21T03:39:20;36.26;28.67;39.92;;
66747;Laerm;53658;50.742;10.864;2023-11-21T03:41:47;36.31;28.67;40.13;;
66747;Laerm;53658;50.742;10.864;2023-11-21T03:44:13;36.26;28.67;39.58;;
66747;Laerm;53658;50.742;10.864;2023-11-21T03:46:39;36.25;26.91;43.77;;
66747;Laerm;53658;50.742;10.864;2023-11-21T03:49:05;36.22;28.67;39.92;;
66747;Laerm;53658;50.742;10.864;2023-11-21T03:51:30;36.25;28.67;39.58;;
66747;Laerm;53658;50.742;10.864;2023-11-21T03:53:56;36.27;28.67;43.76;;
66747;Laerm;53658;50.742;10.864;2023-11-21T03:56:22;36.30;29.92;42.88;;
66747;Laerm;53658;50.742;10.864;2023-11-21T03:58:49;36.34;28.67;40.98;;
66747;Laerm;53658;50.742;10.864;2023-11-21T04:01:22;36.29;23.90;40.23;;
66747;Laerm;53658;50.742;10.864;2023-11-21T04:03:49;36.33;28.67;39.70;;
66747;Laerm;53658;50.742;10.864;2023-11-21T04:06:17;36.44;28.67;39.70;;
66747;Laerm;53658;50.742;10.864;2023-11-21T04:08:43;36.56;26.91;40.03;;
66747;Laerm;53658;50.742;10.864;2023-11-21T04:11:10;36.53;28.67;40.03;;
66747;Laerm;53658;50.742;10.864;2023-11-21T04:13:40;36.48;28.67;40.80;;
66747;Laerm;53658;50.742;10.864;2023-11-21T04:16:08;36.49;26.91;41.38;;
66747;Laerm;53658;50.742;10.864;2023-11-21T04:18:37;36.53;26.91;43.05;;
66747;Laerm;53658;50.742;10.864;2023-11-21T04:21:05;36.54;26.91;40.13;;
66747;Laerm;53658;50.742;10.864;2023-11-21T04:23:31;36.45;28.67;39.92;;
66747;Laerm;53658;50.742;10.864;2023-11-21T04:25:57;36.46;28.67;41.46;;
66747;Laerm;53658;50.742;10.864;2023-11-21T04:28:23;36.45;30.89;40.03;;
66747;Laerm;53658;50.742;10.864;2023-11-21T04:30:50;36.36;28.67;39.81;;
66747;Laerm;53658;50.742;10.864;2023-11-21T04:33:16;36.27;26.91;39.92;;
66747;Laerm;53658;50.742;10.864;2023-11-21T04:35:42;36.24;26.91;40.98;;
66747;Laerm;53658;50.742;10.864;2023-11-21T04:38:08;36.23;28.67;43.04;;
66747;Laerm;53658;50.742;10.864;2023-11-21T04:40:34;36.22;26.91;42.41;;
66747;Laerm;53658;50.742;10.864;2023-11-21T04:43:00;36.22;5.00;42.41;;
66747;Laerm;53658;50.742;10.864;2023-11-21T04:45:27;36.22;28.67;40.43;;
66747;Laerm;53658;50.742;10.864;2023-11-21T04:47:52;36.21;28.67;40.98;;
66747;Laerm;53658;50.742;10.864;2023-11-21T04:50:19;36.22;28.67;39.92;;
66747;Laerm;53658;50.742;10.864;2023-11-21T04:52:45;36.21;28.67;39.70;;
66747;Laerm;53658;50.742;10.864;2023-11-21T04:55:11;36.20;28.67;39.34;;
66747;Laerm;53658;50.742;10.864;2023-11-21T04:57:37;36.20;28.32;39.34;;
66747;Laerm;53658;50.742;10.864;2023-11-21T05:00:03;36.53;26.91;54.83;;
66747;Laerm;53658;50.742;10.864;2023-11-21T05:02:33;36.62;28.32;39.58;;
66747;Laerm;53658;50.742;10.864;2023-11-21T05:05:00;36.55;29.92;40.63;;
66747;Laerm;53658;50.742;10.864;2023-11-21T05:07:26;36.51;29.92;39.46;;
66747;Laerm;53658;50.742;10.864;2023-11-21T05:09:55;36.94;28.67;61.54;;
66747;Laerm;53658;50.742;10.864;2023-11-21T05:12:25;36.54;28.67;40.45;;
66747;Laerm;53658;50.742;10.864;2023-11-21T05:14:51;36.59;28.67;40.13;;
66747;Laerm;53658;50.742;10.864;2023-11-21T05:17:17;36.69;28.67;42.09;;
66747;Laerm;53658;50.742;10.864;2023-11-21T05:19:42;36.49;23.90;40.23;;
66747;Laerm;53658;50.742;10.864;2023-11-21T05:22:11;36.32;28.67;40.03;;
66747;Laerm;53658;50.742;10.864;2023-11-21T05:24:38;36.40;26.91;39.34;;
66747;Laerm;53658;50.742;10.864;2023-11-21T05:27:06;36.38;26.91;40.53;;
66747;Laerm;53658;50.742;10.864;2023-11-21T05:29:32;36.33;28.67;40.03;;
66747;Laerm;53658;50.742;10.864;2023-11-21T05:31:58;36.26;28.67;39.92;;
66747;Laerm;53658;50.742;10.864;2023-11-21T05:34:24;36.19;26.91;40.23;;
66747;Laerm;53658;50.742;10.864;2023-11-21T05:36:50;36.25;23.90;40.13;;
66747;Laerm;53658;50.742;10.864;2023-11-21T05:39:16;36.22;28.67;40.71;;
66747;Laerm;53658;50.742;10.864;2023-11-21T05:41:46;36.17;28.32;39.46;;
66747;Laerm;53658;50.742;10.864;2023-11-21T05:44:12;36.20;26.91;39.34;;
66747;Laerm;53658;50.742;10.864;2023-11-21T05:46:40;36.22;28.67;39.58;;
66747;Laerm;53658;50.742;10.864;2023-11-21T05:49:06;36.20;28.67;39.21;;
66747;Laerm;53658;50.742;10.864;2023-11-21T05:51:33;36.21;29.92;39.81;;
66747;Laerm;53658;50.742;10.864;2023-11-21T05:53:59;36.19;29.92;39.58;;
66747;Laerm;53658;50.742;10.864;2023-11-21T05:56:25;36.20;28.67;39.21;;
66747;Laerm;53658;50.742;10.864;2023-11-21T05:58:51;36.18;28.67;40.89;;
66747;Laerm;53658;50.742;10.864;2023-11-21T06:01:17;36.16;26.91;39.58;;
66747;Laerm;53658;50.742;10.864;2023-11-21T06:03:43;36.20;28.67;39.81;;
66747;Laerm;53658;50.742;10.864;2023-11-21T06:06:09;36.21;28.67;42.29;;
66747;Laerm;53658;50.742;10.864;2023-11-21T06:08:35;36.16;26.91;39.46;;
66747;Laerm;53658;50.742;10.864;2023-11-21T06:11:01;36.14;23.90;43.68;;
66747;Laerm;53658;50.742;10.864;2023-11-21T06:13:27;36.21;28.67;43.68;;
66747;Laerm;53658;50.742;10.864;2023-11-21T06:15:53;36.17;28.32;40.89;;
66747;Laerm;53658;50.742;10.864;2023-11-21T06:18:20;36.20;26.91;39.34;;
66747;Laerm;53658;50.742;10.864;2023-11-21T06:20:46;36.16;26.91;39.46;;
66747;Laerm;53658;50.742;10.864;2023-11-21T06:23:12;36.19;28.67;39.46;;
66747;Laerm;53658;50.742;10.864;2023-11-21T06:25:39;36.18;29.92;39.34;;
66747;Laerm;53658;50.742;10.864;2023-11-21T06:28:06;36.16;23.90;39.46;;
66747;Laerm;53658;50.742;10.864;2023-11-21T06:30:31;36.18;26.91;40.33;;
66747;Laerm;53658;50.742;10.864;2023-11-21T06:32:57;36.18;26.91;40.08;;
66747;Laerm;53658;50.742;10.864;2023-11-21T06:35:23;36.14;26.91;39.92;;
66747;Laerm;53658;50.742;10.864;2023-11-21T06:37:49;36.21;28.67;39.46;;
66747;Laerm;53658;50.742;10.864;2023-11-21T06:40:17;36.16;28.67;39.34;;
66747;Laerm;53658;50.742;10.864;2023-11-21T06:42:47;36.14;28.67;40.13;;
66747;Laerm;53658;50.742;10.864;2023-11-21T06:45:13;36.18;28.67;39.92;;
66747;Laerm;53658;50.742;10.864;2023-11-21T06:47:40;36.16;28.67;39.46;;
66747;Laerm;53658;50.742;10.864;2023-11-21T06:50:06;36.13;26.56;40.13;;
66747;Laerm;53658;50.742;10.864;2023-11-21T06:52:32;36.16;28.67;39.34;;
66747;Laerm;53658;50.742;10.864;2023-11-21T06:54:58;36.18;26.91;42.93;;
66747;Laerm;53658;50.742;10.864;2023-11-21T06:57:25;42.62;29.92;76.78;;
66747;Laerm;53658;50.742;10.864;2023-11-21T06:59:51;39.14;30.89;43.14;;
66747;Laerm;53658;50.742;10.864;2023-11-21T07:02:16;38.00;32.35;41.30;;
66747;Laerm;53658;50.742;10.864;2023-11-21T07:04:46;37.14;30.89;40.71;;
66747;Laerm;53658;50.742;10.864;2023-11-21T07:07:12;36.71;28.67;40.71;;
66747;Laerm;53658;50.742;10.864;2023-11-21T07:09:38;36.51;26.91;40.62;;
66747;Laerm;53658;50.742;10.864;2023-11-21T07:12:04;36.50;26.91;40.13;;
66747;Laerm;53658;50.742;10.864;2023-11-21T07:14:34;36.38;28.67;40.80;;
66747;Laerm;53658;50.742;10.864;2023-11-21T07:17:00;36.34;28.67;39.34;;
66747;Laerm;53658;50.742;10.864;2023-11-21T07:19:25;36.36;28.67;39.92;;
66747;Laerm;53658;50.742;10.864;2023-11-21T07:21:51;36.38;28.67;40.23;;
66747;Laerm;53658;50.742;10.864;2023-11-21T07:24:17;36.37;28.32;39.81;;
66747;Laerm;53658;50.742;10.864;2023-11-21T07:26:43;36.30;29.57;39.46;;
66747;Laerm;53658;50.742;10.864;2023-11-21T07:29:09;36.42;26.91;41.38;;
66747;Laerm;53658;50.742;10.864;2023-11-21T07:31:37;36.41;29.92;39.70;;
66747;Laerm;53658;50.742;10.864;2023-11-21T07:34:03;36.46;28.67;39.81;;
66747;Laerm;53658;50.742;10.864;2023-11-21T07:36:29;36.37;28.67;40.88;;
66747;Laerm;53658;50.742;10.864;2023-11-21T07:38:55;36.31;26.91;45.04;;
66747;Laerm;53658;50.742;10.864;2023-11-21T07:41:21;36.33;28.67;39.46;;
66747;Laerm;53658;50.742;10.864;2023-11-21T07:43:48;36.29;28.67;39.58;;
66747;Laerm;53658;50.742;10.864;2023-11-21T07:46:14;36.28;28.67;39.34;;
66747;Laerm;53658;50.742;10.864;2023-11-21T07:48:41;36.22;28.67;39.92;;
66747;Laerm;53658;50.742;10.864;2023-11-21T07:51:08;36.23;28.67;39.92;;
66747;Laerm;53658;50.742;10.864;2023-11-21T07:53:35;36.20;28.67;39.34;;
66747;Laerm;53658;50.742;10.864;2023-11-21T07:56:06;36.25;28.67;39.70;;
66747;Laerm;53658;50.742;10.864;2023-11-21T07:58:33;36.26;28.67;39.81;;
66747;Laerm;53658;50.742;10.864;2023-11-21T08:01:03;36.27;28.67;53.58;;
66747;Laerm;53658;50.742;10.864;2023-11-21T08:03:29;36.26;28.67;40.13;;
66747;Laerm;53658;50.742;10.864;2023-11-21T08:05:59;36.23;26.91;39.81;;
66747;Laerm;53658;50.742;10.864;2023-11-21T08:08:25;36.22;28.32;39.70;;
66747;Laerm;53658;50.742;10.864;2023-11-21T08:10:52;36.20;26.91;39.46;;
66747;Laerm;53658;50.742;10.864;2023-11-21T08:13:26;36.29;26.91;39.92;;
66747;Laerm;53658;50.742;10.864;2023-11-21T08:15:55;36.27;26.91;43.34;;
66747;Laerm;53658;50.742;10.864;2023-11-21T08:18:22;36.20;26.91;47.22;;
66747;Laerm;53658;50.742;10.864;2023-11-21T08:20:48;36.24;26.91;39.46;;
66747;Laerm;53658;50.742;10.864;2023-11-21T08:23:15;36.23;26.91;40.23;;
66747;Laerm;53658;50.742;10.864;2023-11-21T08:25:45;36.25;28.67;40.03;;
66747;Laerm;53658;50.742;10.864;2023-11-21T08:28:12;36.32;26.91;39.70;;
66747;Laerm;53658;50.742;10.864;2023-11-21T08:30:40;36.29;23.90;39.81;;
66747;Laerm;53658;50.742;10.864;2023-11-21T08:33:07;36.30;26.91;39.58;;
66747;Laerm;53658;50.742;10.864;2023-11-21T08:35:34;36.39;23.90;40.33;;
66747;Laerm;53658;50.742;10.864;2023-11-21T08:38:02;36.36;28.67;39.81;;
66747;Laerm;53658;50.742;10.864;2023-11-21T08:40:28;36.32;26.91;39.58;;
66747;Laerm;53658;50.742;10.864;2023-11-21T08:42:54;36.46;28.67;39.46;;
66747;Laerm;53658;50.742;10.864;2023-11-21T08:45:21;36.54;28.67;42.09;;
66747;Laerm;53658;50.742;10.864;2023-11-21T08:47:48;36.58;29.92;39.92;;
66747;Laerm;53658;50.742;10.864;2023-11-21T08:50:14;36.61;26.91;40.23;;
66747;Laerm;53658;50.742;10.864;2023-11-21T08:52:41;36.48;5.00;39.81;;
66747;Laerm;53658;50.742;10.864;2023-11-21T08:55:08;36.34;29.92;39.92;;
66747;Laerm;53658;50.742;10.864;2023-11-21T08:57:38;36.40;28.67;40.43;;
66747;Laerm;53658;50.742;10.864;2023-11-21T09:00:08;36.28;23.90;39.70;;
66747;Laerm;53658;50.742;10.864;2023-11-21T09:02:39;36.23;29.92;39.70;;
66747;Laerm;53658;50.742;10.864;2023-11-21T09:05:08;36.24;26.91;39.46;;
66747;Laerm;53658;50.742;10.864;2023-11-21T09:07:36;36.25;26.91;39.70;;
66747;Laerm;53658;50.742;10.864;2023-11-21T09:10:03;36.24;28.67;39.70;;
66747;Laerm;53658;50.742;10.864;2023-11-21T09:12:29;36.42;23.90;39.92;;
66747;Laerm;53658;50.742;10.864;2023-11-21T09:14:55;36.48;28.67;39.81;;
66747;Laerm;53658;50.742;10.864;2023-11-21T09:17:21;36.59;28.67;40.71;;
66747;Laerm;53658;50.742;10.864;2023-11-21T09:19:47;36.47;26.91;39.92;;
66747;Laerm;53658;50.742;10.864;2023-11-21T09:22:17;36.59;28.67;40.13;;
66747;Laerm;53658;50.742;10.864;2023-11-21T09:24:43;36.51;26.91;39.58;;
66747;Laerm;53658;50.742;10.864;2023-11-21T09:27:09;36.64;28.67;40.13;;
66747;Laerm;53658;50.742;10.864;2023-11-21T09:29:35;37.69;23.90;67.64;;
66747;Laerm;53658;50.742;10.864;2023-11-21T09:32:07;36.48;26.91;39.58;;
66747;Laerm;53658;50.742;10.864;2023-11-21T09:34:34;36.72;26.91;42.03;;
66747;Laerm;53658;50.742;10.864;2023-11-21T09:37:06;36.72;28.67;40.33;;
66747;Laerm;53658;50.742;10.864;2023-11-21T09:39:33;36.65;29.92;40.33;;
66747;Laerm;53658;50.742;10.864;2023-11-21T09:42:17;36.43;28.67;40.03;;
66747;Laerm;53658;50.742;10.864;2023-11-21T09:47:22;36.54;29.92;40.33;;
66747;Laerm;53658;50.742;10.864;2023-11-21T09:49:48;36.54;28.32;41.30;;
66747;Laerm;53658;50.742;10.864;2023-11-21T09:52:27;36.61;26.91;41.53;;
66747;Laerm;53658;50.742;10.864;2023-11-21T09:54:55;36.45;28.67;41.75;;
66747;Laerm;53658;50.742;10.864;2023-11-21T09:57:25;36.58;26.91;40.62;;
66747;Laerm;53658;50.742;10.864;2023-11-21T09:59:52;36.59;29.92;40.89;;
66747;Laerm;53658;50.742;10.864;2023-11-21T10:02:26;36.48;28.67;39.81;;
66747;Laerm;53658;50.742;10.864;2023-11-21T10:04:54;36.58;23.90;43.24;;
66747;Laerm;53658;50.742;10.864;2023-11-21T10:07:21;36.43;23.90;43.44;;
66747;Laerm;53658;50.742;10.864;2023-11-21T10:09:47;36.62;26.91;40.53;;
66747;Laerm;53658;50.742;10.864;2023-11-21T10:12:16;36.21;28.67;43.90;;
66747;Laerm;53658;50.742;10.864;2023-11-21T10:14:42;36.31;26.91;45.20;;
66747;Laerm;53658;50.742;10.864;2023-11-21T10:17:14;37.01;30.89;50.48;;
66747;Laerm;53658;50.742;10.864;2023-11-21T10:19:53;37.51;32.93;41.61;;
66747;Laerm;53658;50.742;10.864;2023-11-21T10:22:20;37.75;33.44;45.86;;
66747;Laerm;53658;50.742;10.864;2023-11-21T10:24:46;37.94;33.90;46.82;;
66747;Laerm;53658;50.742;10.864;2023-11-21T10:27:13;38.08;34.69;48.36;;
66747;Laerm;53658;50.742;10.864;2023-11-21T10:29:39;38.19;34.31;47.93;;
66747;Laerm;53658;50.742;10.864;2023-11-21T10:32:05;38.26;34.31;41.96;;
66747;Laerm;53658;50.742;10.864;2023-11-21T10:34:31;38.43;35.04;50.70;;
66747;Laerm;53658;50.742;10.864;2023-11-21T10:36:58;38.77;35.94;41.14;;
66747;Laerm;53658;50.742;10.864;2023-11-21T10:39:25;39.06;36.20;41.22;;
66747;Laerm;53658;50.742;10.864;2023-11-21T10:41:56;39.00;36.20;41.14;;
66747;Laerm;53658;50.742;10.864;2023-11-21T10:44:22;38.93;35.36;41.14;;
66747;Laerm;53658;50.742;10.864;2023-11-21T10:46:53;38.94;36.20;41.22;;
66747;Laerm;53658;50.742;10.864;2023-11-21T10:49:26;38.90;36.10;41.22;;
66747;Laerm;53658;50.742;10.864;2023-11-21T10:51:55;38.88;35.94;41.14;;
66747;Laerm;53658;50.742;10.864;2023-11-21T10:54:23;38.90;35.94;41.38;;
66747;Laerm;53658;50.742;10.864;2023-11-21T10:56:56;38.91;35.36;41.30;;
66747;Laerm;53658;50.742;10.864;2023-11-21T10:59:23;38.90;35.94;41.22;;
66747;Laerm;53658;50.742;10.864;2023-11-21T11:01:51;38.88;36.45;41.22;;
66747;Laerm;53658;50.742;10.864;2023-11-21T11:04:19;38.90;35.36;40.98;;
66747;Laerm;53658;50.742;10.864;2023-11-21T11:06:53;38.91;36.45;41.06;;
66747;Laerm;53658;50.742;10.864;2023-11-21T11:09:20;38.87;35.66;41.22;;
66747;Laerm;53658;50.742;10.864;2023-11-21T11:11:46;38.86;35.36;41.46;;
66747;Laerm;53658;50.742;10.864;2023-11-21T11:14:13;38.92;35.66;40.98;;
66747;Laerm;53658;50.742;10.864;2023-11-21T11:16:40;39.01;35.94;47.02;;
66747;Laerm;53658;50.742;10.864;2023-11-21T11:19:09;38.89;35.66;41.06;;
66747;Laerm;53658;50.742;10.864;2023-11-21T11:27:57;38.94;36.20;41.38;;
66747;Laerm;53658;50.742;10.864;2023-11-21T11:33:36;38.97;35.94;41.14;;
66747;Laerm;53658;50.742;10.864;2023-11-21T11:39:00;38.99;35.94;41.06;;
66747;Laerm;53658;50.742;10.864;2023-11-21T11:41:30;38.98;36.20;41.30;;
66747;Laerm;53658;50.742;10.864;2023-11-21T11:44:00;39.01;36.20;41.14;;
66747;Laerm;53658;50.742;10.864;2023-11-21T11:46:44;39.02;36.20;40.98;;
66747;Laerm;53658;50.742;10.864;2023-11-21T11:49:24;39.00;36.20;41.14;;
66747;Laerm;53658;50.742;10.864;2023-11-21T11:54:55;39.02;36.20;41.22;;
66747;Laerm;53658;50.742;10.864;2023-11-21T11:57:24;38.99;35.66;40.98;;
66747;Laerm;53658;50.742;10.864;2023-11-21T12:02:44;39.00;35.94;41.22;;
66747;Laerm;53658;50.742;10.864;2023-11-21T12:05:12;38.99;36.20;41.14;;
66747;Laerm;53658;50.742;10.864;2023-11-21T12:07:52;39.03;36.20;41.30;;
66747;Laerm;53658;50.742;10.864;2023-11-21T12:10:21;39.04;36.20;41.22;;
66747;Laerm;53658;50.742;10.864;2023-11-21T12:12:54;39.01;35.94;41.46;;
66747;Laerm;53658;50.742;10.864;2023-11-21T12:15:21;39.02;36.20;41.46;;
66747;Laerm;53658;50.742;10.864;2023-11-21T12:17:48;39.03;36.20;41.14;;
66747;Laerm;53658;50.742;10.864;2023-11-21T12:20:18;39.00;35.66;41.06;;
66747;Laerm;53658;50.742;10.864;2023-11-21T12:22:52;39.02;36.69;41.30;;
66747;Laerm;53658;50.742;10.864;2023-11-21T12:25:23;38.99;36.45;49.12;;
66747;Laerm;53658;50.742;10.864;2023-11-21T12:27:53;39.05;36.45;52.72;;
66747;Laerm;53658;50.742;10.864;2023-11-21T12:30:22;39.05;35.36;52.66;;
66747;Laerm;53658;50.742;10.864;2023-11-21T12:32:52;38.99;36.45;47.12;;
66747;Laerm;53658;50.742;10.864;2023-11-21T12:35:26;39.01;35.94;41.22;;
66747;Laerm;53658;50.742;10.864;2023-11-21T12:37:54;49.89;35.04;83.31;;
66747;Laerm;53658;50.742;10.864;2023-11-21T12:40:20;38.85;35.66;41.38;;
66747;Laerm;53658;50.742;10.864;2023-11-21T12:42:51;38.89;35.94;56.98;;
66747;Laerm;53658;50.742;10.864;2023-11-21T12:45:23;38.68;35.66;49.19;;
66747;Laerm;53658;50.742;10.864;2023-11-21T12:47:57;38.59;35.94;45.51;;
66747;Laerm;53658;50.742;10.864;2023-11-21T12:50:30;38.87;35.04;62.10;;
66747;Laerm;53658;50.742;10.864;2023-11-21T12:53:05;38.40;35.04;47.59;;
66747;Laerm;53658;50.742;10.864;2023-11-21T12:55:35;38.43;34.69;47.16;;
66747;Laerm;53658;50.742;10.864;2023-11-21T12:58:07;38.26;34.69;51.05;;
66747;Laerm;53658;50.742;10.864;2023-11-21T13:00:44;38.25;34.69;58.02;;
66747;Laerm;53658;50.742;10.864;2023-11-21T13:03:11;38.15;34.31;52.31;;
66747;Laerm;53658;50.742;10.864;2023-11-21T13:05:41;38.26;34.69;54.63;;
66747;Laerm;53658;50.742;10.864;2023-11-21T13:08:12;41.73;34.31;75.62;;
66747;Laerm;53658;50.742;10.864;2023-11-21T13:10:40;38.00;33.44;53.98;;
66747;Laerm;53658;50.742;10.864;2023-11-21T13:13:10;37.90;34.34;50.74;;
66747;Laerm;53658;50.742;10.864;2023-11-21T13:15:40;38.15;34.31;53.56;;
66747;Laerm;53658;50.742;10.864;2023-11-21T13:18:08;38.38;33.90;64.20;;
66747;Laerm;53658;50.742;10.864;2023-11-21T13:20:36;37.83;33.90;54.07;;
66747;Laerm;53658;50.742;10.864;2023-11-21T13:23:08;38.74;33.90;67.95;;
66747;Laerm;53658;50.742;10.864;2023-11-21T13:25:34;38.16;33.44;61.17;;
66747;Laerm;53658;50.742;10.864;2023-11-21T13:28:00;37.60;30.89;46.71;;
66747;Laerm;53658;50.742;10.864;2023-11-21T13:30:28;37.76;32.93;59.35;;
66747;Laerm;53658;50.742;10.864;2023-11-21T13:33:00;37.54;33.55;47.36;;
66747;Laerm;53658;50.742;10.864;2023-11-21T13:35:33;37.52;31.68;45.39;;
66747;Laerm;53658;50.742;10.864;2023-11-21T13:38:11;37.52;32.93;48.52;;
66747;Laerm;53658;50.742;10.864;2023-11-21T13:40:39;37.48;32.93;42.59;;
66747;Laerm;53658;50.742;10.864;2023-11-21T13:43:10;37.79;32.93;58.57;;
66747;Laerm;53658;50.742;10.864;2023-11-21T13:45:38;37.55;33.44;51.57;;
66747;Laerm;53658;50.742;10.864;2023-11-21T13:48:09;38.70;32.35;68.83;;
66747;Laerm;53658;50.742;10.864;2023-11-21T13:50:40;37.52;33.44;49.94;;
66747;Laerm;53658;50.742;10.864;2023-11-21T13:53:14;38.13;33.09;66.15;;
66747;Laerm;53658;50.742;10.864;2023-11-21T13:55:50;37.53;33.44;40.53;;